Impacts TAF Board
For situational awareness. Not to be used for flight planning purposes.
IDs:

KSTL - St Louis/Lambert Int, MO, US

Issued at 0254 UTC 14 Dec 2018
Updated at 0503 UTC 14 Dec 2018
Potential Impact None Slight Moderate High
Time0451Z 14/06Z 14/07Z 14/08Z 14/09Z 14/10Z 14/11Z 14/12Z 14/13Z 14/14Z 14/15Z 14/16Z 14/17Z 14/18Z>>
Type OBS PRVL PRVL PRVL PRVL PRVL PRVL PRVL PRVL PRVL PRVL PRVL PRVL PRVL
VIS 6 2 2 2 2 2 2 2 2 2 2 2 2 2
CIG 3 4 4 4 4 4 4 4 4 4 4 4 4 4
Cover OVC OVC OVC OVC OVC OVC OVC OVC OVC OVC OVC OVC OVC OVC
FltCat LIFR LIFR LIFR LIFR LIFR LIFR LIFR LIFR LIFR LIFR LIFR LIFR LIFR LIFR
WX -RA BR -RA BR -RA BR -RA BR -RA BR -RA BR BR VCSH BR VCSH BR VCSH BR VCSH BR VCSH BR VCSH BR VCSH BR VCSH
WDir 20 20 20 20 20 20 20 20 20 20 20 20 20 20
WSpd 5 6 6 6 6 6 6 6 6 6 6 6 6 6
WGst -- -- -- -- -- -- -- -- -- -- -- -- -- --
Raw TAF
KSTL 140254Z 1403/1506 VRB04KT 4SM -RA BR OVC004
  FM140600 02006KT 2SM -RA BR OVC004
  FM141100 02006KT 2SM BR VCSH OVC004
  FM141900 02010KT 4SM -RA OVC007
  FM142300 02013G19KT 4SM -RA OVC007


Raw METAR
KSTL 140451Z 02005KT 6SM -RA BR OVC003 09/09 A3000 RMK AO2 SLP163 P0004 T00890089 $
KSTL 140410Z 05003KT 5SM -RA BR OVC003 09/09 A3000 RMK AO2 P0002 T00940094 $
KSTL 140351Z 00000KT 4SM -RA BR OVC004 09/09 A3000 RMK AO2 SLP160 P0006 T00940094 $
KSTL 140300Z 07003KT 4SM -RA BR OVC004 09/09 A2999 RMK AO2 P0001 T00890089 $
KSTL 140251Z 07004KT 5SM -RA BR BKN004 OVC015 09/09 A2999 RMK AO2 SLP157 P0005 60016 T00940094 51002 $
KSTL 140245Z 08004KT 5SM -RA BR BKN004 OVC015 09/09 A2999 RMK AO2 P0005 $

METAR Board
Radar Display
Forecast Discussion
For situational awareness. Not to be used for flight planning purposes.